Time;durP1;ratioP1;P1;durP2;ratioP2;P2;SDS_P1;SDS_P2;PMS_P1;PMS_P2;Temp;Humidity;BMP_temperature;BMP_pressure;BME280_temperature;BME280_humidity;BME280_pressure;Samples;Min_cycle;Max_cycle;Signal;HPM_P1;HPM_P2
2021/10/08 02:45:42;;;;;;;38.28;19.77;;;13.40;97.50;;;;;;5544344;24;20075;-80
2021/10/08 02:48:08;;;;;;;45.15;20.10;;;13.40;97.40;;;;;;4755785;30;20047;-80
2021/10/08 02:50:34;;;;;;;44.53;19.63;;;13.40;97.40;;;;;;4738680;30;20032;-80
2021/10/08 02:53:00;;;;;;;33.97;18.65;;;13.40;97.50;;;;;;4739428;30;20039;-80
2021/10/08 02:55:26;;;;;;;31.17;18.65;;;13.40;97.40;;;;;;4739502;30;20103;-80
2021/10/08 02:57:52;;;;;;;33.13;19.48;;;13.40;97.20;;;;;;4738908;30;20372;-80
2021/10/08 03:00:18;;;;;;;39.77;18.77;;;13.40;97.30;;;;;;4738824;30;20035;-81
2021/10/08 03:02:44;;;;;;;37.05;18.83;;;13.40;97.50;;;;;;4753420;30;20056;-80
2021/10/08 03:05:10;;;;;;;44.38;16.98;;;13.40;97.50;;;;;;4753364;30;20036;-80
2021/10/08 03:07:36;;;;;;;42.63;16.17;;;13.40;97.40;;;;;;4753009;30;20028;-80
2021/10/08 03:10:04;;;;;;;45.85;18.67;;;13.40;97.00;;;;;;4738551;30;20035;-80
2021/10/08 03:12:33;;;;;;;43.25;18.42;;;13.40;96.50;;;;;;4739304;30;20032;-80
2021/10/08 03:15:01;;;;;;;34.72;15.45;;;13.30;96.70;;;;;;4738300;30;20063;-80
2021/10/08 03:17:27;;;;;;;30.98;16.75;;;13.30;96.60;;;;;;4746236;30;20247;-80
2021/10/08 03:19:57;;;;;;;37.50;18.33;;;13.30;96.60;;;;;;4721488;30;20366;-80
2021/10/08 03:22:23;;;;;;;33.60;16.33;;;13.30;96.70;;;;;;4721293;30;20032;-80
2021/10/08 03:24:49;;;;;;;36.88;14.77;;;13.30;96.80;;;;;;4735357;30;20038;-80
2021/10/08 03:27:15;;;;;;;24.92;16.10;;;13.30;96.80;;;;;;4725126;30;20227;-80
2021/10/08 03:29:41;;;;;;;35.55;16.13;;;13.30;96.70;;;;;;4738429;30;20055;-80
2021/10/08 03:32:07;;;;;;;43.85;17.48;;;13.30;96.30;;;;;;4738046;30;20036;-80
2021/10/08 03:34:34;;;;;;;40.70;16.93;;;13.30;96.00;;;;;;4738071;30;20035;-80
2021/10/08 03:37:03;;;;;;;46.88;18.85;;;13.30;96.30;;;;;;4738769;30;20112;-80
2021/10/08 03:39:33;;;;;;;41.40;18.77;;;13.20;95.90;;;;;;4739221;30;20102;-80
2021/10/08 03:41:58;;;;;;;45.65;17.52;;;13.20;96.00;;;;;;4753803;30;20036;-80
2021/10/08 03:44:27;;;;;;;47.00;16.98;;;13.20;96.20;;;;;;4738865;30;20231;-80
2021/10/08 03:46:56;;;;;;;35.20;16.65;;;13.20;96.20;;;;;;4752527;30;20370;-80
2021/10/08 03:49:23;;;;;;;31.45;15.60;;;13.20;96.30;;;;;;4738330;30;20032;-80
2021/10/08 03:51:50;;;;;;;;;;;13.20;96.40;;;;;;4738796;30;20039;-80
2021/10/08 03:54:18;;;;;;;46.30;20.70;;;13.10;95.60;;;;;;4769100;30;19906;-80
2021/10/08 03:56:45;;;;;;;50.08;19.48;;;13.10;96.00;;;;;;4738230;30;20040;-80
2021/10/08 03:59:11;;;;;;;40.60;19.10;;;13.00;95.90;;;;;;4737631;30;20032;-80
2021/10/08 04:01:37;;;;;;;52.07;20.33;;;13.10;95.90;;;;;;4737420;30;20043;-80
2021/10/08 04:04:06;;;;;;;41.85;18.88;;;13.20;96.10;;;;;;4767102;30;20306;-80
2021/10/08 04:06:33;;;;;;;40.85;18.58;;;13.10;95.90;;;;;;4752088;30;20032;-80
2021/10/08 04:09:00;;;;;;;41.13;19.60;;;13.10;95.90;;;;;;4752924;30;20335;-80
2021/10/08 04:11:27;;;;;;;40.30;19.70;;;13.20;96.10;;;;;;4737600;30;20034;-80
2021/10/08 04:13:56;;;;;;;41.60;20.03;;;13.20;95.70;;;;;;4737856;30;20040;-80
2021/10/08 04:16:22;;;;;;;41.55;19.85;;;13.10;95.90;;;;;;4737168;30;20039;-80
2021/10/08 04:18:50;;;;;;;47.72;20.67;;;13.10;96.10;;;;;;4720857;30;20029;-80
2021/10/08 04:21:16;;;;;;;45.00;21.90;;;13.10;96.00;;;;;;4735355;30;20040;-80
2021/10/08 04:23:42;;;;;;;40.60;19.90;;;13.10;96.10;;;;;;4721517;30;20036;-79
2021/10/08 04:26:08;;;;;;;45.35;21.00;;;13.10;96.00;;;;;;4735208;30;20108;-80
2021/10/08 04:28:34;;;;;;;48.30;20.30;;;13.00;96.00;;;;;;4748424;30;20029;-80
2021/10/08 04:31:02;;;;;;;40.92;19.50;;;13.00;96.00;;;;;;4738828;30;20054;-80
2021/10/08 04:33:30;;;;;;;39.92;18.13;;;13.00;96.10;;;;;;4751862;30;20036;-80
2021/10/08 04:36:01;;;;;;;39.40;19.23;;;13.00;96.10;;;;;;4738285;30;20215;-79
2021/10/08 04:38:33;;;;;;;48.75;20.58;;;13.00;96.00;;;;;;4738539;30;20096;-80
2021/10/08 04:41:03;;;;;;;40.55;18.67;;;13.00;96.10;;;;;;4750978;30;20044;-80
2021/10/08 04:43:30;;;;;;;33.17;18.38;;;13.00;96.20;;;;;;4736706;30;20041;-80
2021/10/08 04:45:57;;;;;;;37.50;18.85;;;13.00;96.20;;;;;;4736496;30;20073;-80
2021/10/08 04:48:23;;;;;;;40.42;18.05;;;13.00;96.60;;;;;;4736673;30;20138;-80
2021/10/08 04:50:49;;;;;;;34.63;17.83;;;13.00;96.60;;;;;;4767621;30;20028;-80
2021/10/08 04:53:20;;;;;;;53.10;18.73;;;13.10;96.70;;;;;;4737537;30;20096;-80
2021/10/08 04:55:47;;;;;;;42.92;18.73;;;13.10;96.50;;;;;;4736981;30;20039;-80
2021/10/08 04:58:15;;;;;;;37.03;19.42;;;13.10;96.40;;;;;;4737394;30;20262;-80
2021/10/08 05:00:42;;;;;;;35.88;19.70;;;13.10;96.60;;;;;;4751234;30;20239;-80
2021/10/08 05:03:14;;;;;;;40.72;19.92;;;13.20;96.60;;;;;;4751670;30;20036;-80
2021/10/08 05:05:52;;;;;;;35.78;20.05;;;13.20;96.70;;;;;;4752041;30;20040;-80
2021/10/08 05:08:23;;;;;;;44.03;19.77;;;13.20;96.70;;;;;;4737329;30;20024;-80
2021/10/08 05:10:52;;;;;;;35.63;18.10;;;13.20;96.30;;;;;;4736262;30;20034;-80
2021/10/08 05:13:19;;;;;;;36.75;18.20;;;13.10;96.50;;;;;;4736862;30;20437;-80
2021/10/08 05:15:45;;;;;;;36.95;17.25;;;13.10;96.90;;;;;;4764863;30;20036;-80
2021/10/08 05:18:12;;;;;;;47.35;20.05;;;13.00;96.80;;;;;;4764879;30;20347;-80
2021/10/08 05:20:37;;;;;;;40.83;17.98;;;13.00;97.00;;;;;;4737220;30;20038;-84
2021/10/08 05:23:04;;;;;;;38.85;17.20;;;13.00;96.90;;;;;;4735929;30;20055;-81
2021/10/08 05:25:30;;;;;;;47.20;17.77;;;13.00;97.00;;;;;;4736703;30;20123;-81
2021/10/08 05:27:56;;;;;;;33.33;19.10;;;13.00;97.10;;;;;;4736113;30;20031;-81
2021/10/08 05:30:22;;;;;;;35.13;17.58;;;13.00;97.20;;;;;;4735985;30;20282;-81
2021/10/08 05:32:49;;;;;;;39.92;18.55;;;13.00;97.10;;;;;;4736097;30;20020;-81
2021/10/08 05:35:16;;;;;;;45.65;19.75;;;13.00;97.30;;;;;;4733657;30;20033;-81
2021/10/08 05:37:42;;;;;;;46.67;19.20;;;13.00;97.20;;;;;;4735438;30;20065;-81
2021/10/08 05:40:09;;;;;;;39.90;18.77;;;13.00;97.10;;;;;;4764010;30;20052;-81
2021/10/08 05:42:38;;;;;;;36.80;18.73;;;13.00;97.10;;;;;;4751261;30;20344;-81
2021/10/08 05:45:04;;;;;;;40.65;19.20;;;13.00;97.10;;;;;;4735986;30;20032;-82
2021/10/08 05:47:30;;;;;;;46.60;18.83;;;13.00;97.10;;;;;;4731195;30;20116;-82
2021/10/08 05:49:56;;;;;;;44.20;18.60;;;13.00;97.00;;;;;;4745010;30;20028;-82
2021/10/08 05:52:22;;;;;;;40.22;18.35;;;13.00;97.10;;;;;;4748103;30;20036;-81
2021/10/08 05:54:48;;;;;;;44.67;19.00;;;13.10;97.00;;;;;;4736050;30;20060;-80
2021/10/08 05:57:13;;;;;;;37.80;17.58;;;13.10;96.90;;;;;;4732558;30;20028;-81
2021/10/08 05:59:41;;;;;;;46.60;18.17;;;13.10;96.90;;;;;;4734137;30;20055;-81
2021/10/08 06:02:06;;;;;;;;;;;13.20;97.20;;;;;;4734203;30;20218;-80
2021/10/08 06:04:32;;;;;;;42.53;18.30;;;13.20;96.70;;;;;;4748910;30;19916;-79
2021/10/08 06:06:58;;;;;;;38.20;18.90;;;13.20;97.00;;;;;;4733764;30;20024;-80
2021/10/08 06:09:25;;;;;;;35.80;18.35;;;13.20;97.00;;;;;;4734979;30;20047;-80
2021/10/08 06:11:51;;;;;;;41.88;19.02;;;13.20;97.00;;;;;;4735526;30;20028;-79
2021/10/08 06:14:16;;;;;;;38.47;18.42;;;13.30;97.00;;;;;;4764692;30;20028;-79
2021/10/08 06:16:42;;;;;;;45.33;19.02;;;13.40;96.90;;;;;;4734784;30;20036;-79
2021/10/08 06:19:09;;;;;;;40.25;19.65;;;13.40;96.60;;;;;;4734763;30;20060;-80
2021/10/08 06:21:37;;;;;;;43.35;19.67;;;13.50;96.40;;;;;;4749466;30;20032;-80
2021/10/08 06:24:03;;;;;;;45.17;18.13;;;13.50;96.40;;;;;;4736542;30;20104;-80
2021/10/08 06:26:29;;;;;;;41.15;18.45;;;13.60;96.30;;;;;;4737150;30;20107;-80
2021/10/08 06:28:55;;;;;;;39.47;17.42;;;13.60;96.00;;;;;;4736296;30;20036;-80
2021/10/08 06:31:21;;;;;;;33.50;17.45;;;13.60;96.00;;;;;;4736889;30;20280;-80
2021/10/08 06:33:47;;;;;;;42.53;18.25;;;13.60;95.80;;;;;;4735184;30;20059;-80
2021/10/08 06:36:13;;;;;;;41.30;17.45;;;13.70;95.60;;;;;;4751757;30;20070;-80
2021/10/08 06:38:40;;;;;;;43.08;18.25;;;13.70;95.90;;;;;;4729152;30;20394;-80
2021/10/08 06:41:06;;;;;;;31.27;18.15;;;13.90;95.30;;;;;;4757697;30;20036;-81
2021/10/08 06:43:32;;;;;;;41.00;18.08;;;13.90;95.00;;;;;;4737457;30;20371;-80
2021/10/08 06:46:07;;;;;;;41.93;17.10;;;13.90;95.00;;;;;;4701150;30;1147269;-80
2021/10/08 06:48:33;;;;;;;40.83;18.23;;;13.90;95.00;;;;;;4753303;30;20266;-80
2021/10/08 06:50:59;;;;;;;44.45;17.17;;;13.90;94.90;;;;;;4754222;30;20346;-80
2021/10/08 06:53:25;;;;;;;41.75;16.63;;;14.00;94.50;;;;;;4738203;30;20060;-80
2021/10/08 06:55:52;;;;;;;45.40;18.40;;;14.00;94.30;;;;;;4753873;30;20021;-80
2021/10/08 06:58:32;;;;;;;38.22;17.73;;;14.10;94.60;;;;;;4740279;30;20033;-80
2021/10/08 07:00:59;;;;;;;37.53;17.50;;;14.10;93.90;;;;;;4739520;30;20121;-80
2021/10/08 07:03:26;;;;;;;35.50;18.75;;;14.10;94.40;;;;;;4740863;30;20437;-80
2021/10/08 07:05:52;;;;;;;39.97;18.42;;;14.20;93.90;;;;;;4754949;30;20263;-80
2021/10/08 07:08:19;;;;;;;;;;;14.30;94.20;;;;;;4739889;30;20028;-81
2021/10/08 07:10:45;;;;;;;45.88;17.52;;;14.40;94.40;;;;;;4754841;30;20071;-80
2021/10/08 07:13:13;;;;;;;37.10;17.88;;;14.40;94.00;;;;;;4738919;30;20039;-80
2021/10/08 07:15:39;;;;;;;46.97;18.70;;;14.50;93.90;;;;;;4759311;30;20039;-80
2021/10/08 07:18:06;;;;;;;39.95;17.45;;;14.50;93.50;;;;;;4752081;30;20032;-80
2021/10/08 07:20:32;;;;;;;42.17;17.50;;;14.60;93.60;;;;;;4738952;30;20039;-80
2021/10/08 07:23:00;;;;;;;37.58;16.75;;;14.70;92.90;;;;;;4739078;30;20040;-80
2021/10/08 07:25:29;;;;;;;38.80;16.88;;;14.70;92.90;;;;;;4738664;30;20446;-80
2021/10/08 07:27:55;;;;;;;32.85;17.67;;;14.80;92.20;;;;;;4738699;30;20032;-79
2021/10/08 07:30:21;;;;;;;43.00;19.07;;;14.90;92.70;;;;;;4738993;30;20096;-80
2021/10/08 07:32:48;;;;;;;31.42;18.17;;;14.80;91.70;;;;;;4738720;30;20051;-80
2021/10/08 07:35:15;;;;;;;38.00;17.47;;;14.80;91.90;;;;;;4738412;30;20024;-79
2021/10/08 07:37:42;;;;;;;40.70;17.02;;;14.70;92.10;;;;;;4738849;30;20028;-79
2021/10/08 07:40:10;;;;;;;32.30;17.30;;;14.90;92.50;;;;;;4738887;30;20043;-79
2021/10/08 07:42:36;;;;;;;37.00;17.88;;;15.00;92.40;;;;;;4738380;30;20047;-79
2021/10/08 07:45:04;;;;;;;38.30;17.83;;;15.10;92.00;;;;;;4738435;30;20115;-79
2021/10/08 07:47:30;;;;;;;37.75;17.70;;;15.10;90.80;;;;;;4749073;30;20477;-79
2021/10/08 07:49:56;;;;;;;45.90;17.17;;;15.20;91.50;;;;;;4767923;30;20135;-80
2021/10/08 07:52:22;;;;;;;36.55;16.80;;;15.30;91.60;;;;;;4768260;30;20031;-79
2021/10/08 07:54:47;;;;;;;34.50;17.80;;;15.30;91.20;;;;;;4768058;30;20087;-80
2021/10/08 07:57:13;;;;;;;36.92;17.67;;;15.30;91.40;;;;;;4753381;30;20082;-80
2021/10/08 07:59:39;;;;;;;38.58;18.33;;;15.20;91.00;;;;;;4753340;30;20069;-80
2021/10/08 08:02:05;;;;;;;48.38;18.80;;;15.20;91.20;;;;;;4767710;30;20234;-80
2021/10/08 08:04:31;;;;;;;48.92;18.60;;;15.20;91.40;;;;;;4767551;30;20040;-80
2021/10/08 08:06:56;;;;;;;40.08;17.95;;;15.20;91.50;;;;;;4767998;30;20284;-80
2021/10/08 08:09:22;;;;;;;39.92;18.88;;;15.30;91.40;;;;;;4769496;30;20039;-80
2021/10/08 08:11:48;;;;;;;50.35;18.88;;;15.40;91.50;;;;;;4768458;30;20032;-80
2021/10/08 08:14:14;;;;;;;37.60;17.73;;;15.60;91.40;;;;;;4753660;30;20032;-82
2021/10/08 08:16:39;;;;;;;40.90;17.65;;;15.60;90.70;;;;;;4744947;30;20228;-80
2021/10/08 08:19:05;;;;;;;43.45;18.08;;;15.70;91.00;;;;;;4739214;30;20032;-80
2021/10/08 08:21:31;;;;;;;39.88;17.15;;;15.80;90.70;;;;;;4753050;30;20063;-80
2021/10/08 08:23:57;;;;;;;29.42;17.02;;;15.90;90.60;;;;;;4738281;30;20067;-79
2021/10/08 08:26:23;;;;;;;71.00;24.85;;;16.00;90.40;;;;;;4753037;30;20044;-79
2021/10/08 08:28:49;;;;;;;56.20;19.50;;;15.90;89.80;;;;;;4738723;30;20032;-79
2021/10/08 08:31:15;;;;;;;54.55;21.05;;;15.90;90.50;;;;;;4752948;30;20034;-79
2021/10/08 08:33:41;;;;;;;58.28;20.45;;;16.00;90.50;;;;;;4753188;30;20028;-81
2021/10/08 08:36:07;;;;;;;66.28;23.08;;;16.10;89.50;;;;;;4739316;30;20107;-80
2021/10/08 08:38:33;;;;;;;266.25;56.80;;;16.10;90.50;;;;;;4752768;30;20040;-80
2021/10/08 08:40:59;;;;;;;46.58;20.38;;;16.20;91.20;;;;;;4738102;30;20032;-79
2021/10/08 08:43:29;;;;;;;39.33;17.35;;;16.20;90.20;;;;;;4738761;30;20032;-81
2021/10/08 08:45:55;;;;;;;42.88;18.40;;;16.30;88.00;;;;;;4735982;30;20052;-80
2021/10/08 08:48:21;;;;;;;43.70;18.80;;;16.30;89.30;;;;;;4737563;30;20335;-80
2021/10/08 08:50:48;;;;;;;46.05;18.80;;;16.50;87.50;;;;;;4737022;30;20096;-80
2021/10/08 08:53:18;;;;;;;43.92;18.98;;;16.60;86.60;;;;;;4737396;30;20401;-80
2021/10/08 08:55:43;;;;;;;39.58;17.80;;;16.70;86.60;;;;;;4737136;30;20405;-80
2021/10/08 08:58:10;;;;;;;51.70;18.10;;;16.90;88.80;;;;;;4752911;30;20028;-80
2021/10/08 09:00:35;;;;;;;33.03;16.42;;;17.20;87.40;;;;;;4738176;30;20028;-80
2021/10/08 09:03:04;;;;;;;42.28;16.67;;;17.30;84.60;;;;;;4752534;30;20043;-80
2021/10/08 09:05:35;;;;;;;33.35;16.65;;;17.30;83.50;;;;;;4738271;30;20067;-80
2021/10/08 09:08:08;;;;;;;36.63;18.48;;;17.20;81.70;;;;;;4753417;30;20085;-81
2021/10/08 09:10:40;;;;;;;35.72;17.60;;;16.90;85.20;;;;;;4753099;30;20036;-80
2021/10/08 09:13:06;;;;;;;34.30;18.00;;;17.00;86.30;;;;;;4738035;30;20032;-80
2021/10/08 09:15:53;;;;;;;40.03;16.40;;;17.20;85.00;;;;;;4738271;30;20052;-80
2021/10/08 09:18:21;;;;;;;31.55;16.00;;;17.40;82.50;;;;;;4735912;30;20205;-80
2021/10/08 09:21:12;;;;;;;29.77;15.98;;;17.50;83.80;;;;;;4735261;30;20032;-80
2021/10/08 09:23:41;;;;;;;30.42;16.02;;;17.60;83.40;;;;;;4735073;30;20155;-80
2021/10/08 09:26:24;;;;;;;31.83;16.75;;;17.70;83.40;;;;;;4735142;30;20103;-81
2021/10/08 09:29:02;;;;;;;37.75;17.13;;;17.90;82.30;;;;;;4735754;30;20032;-81
2021/10/08 09:31:37;;;;;;;30.65;17.50;;;17.80;80.40;;;;;;4736909;30;20212;-81
2021/10/08 09:34:14;;;;;;;33.05;15.93;;;17.70;80.70;;;;;;4752246;30;20132;-81
2021/10/08 09:36:42;;;;;;;30.65;15.27;;;17.80;81.50;;;;;;4737111;30;20032;-81
2021/10/08 09:39:22;;;;;;;32.80;15.35;;;18.00;81.60;;;;;;4767034;30;20091;-81
2021/10/08 09:42:00;;;;;;;32.97;15.93;;;18.10;79.00;;;;;;4751863;30;20036;-81
2021/10/08 09:44:28;;;;;;;31.52;16.00;;;18.10;78.80;;;;;;4736867;30;20036;-81
2021/10/08 09:47:19;;;;;;;38.22;15.55;;;18.10;78.40;;;;;;4751713;30;20113;-81
2021/10/08 09:49:47;;;;;;;32.00;15.88;;;18.20;77.20;;;;;;4752011;30;20048;-81
2021/10/08 09:52:31;;;;;;;30.65;16.25;;;18.20;80.00;;;;;;4737654;30;20032;-81
2021/10/08 09:55:05;;;;;;;32.15;14.93;;;18.20;78.70;;;;;;4751471;30;20040;-81
2021/10/08 09:57:56;;;;;;;42.22;14.90;;;18.20;76.10;;;;;;4753979;30;20043;-81
2021/10/08 10:00:38;;;;;;;28.73;13.98;;;18.20;78.30;;;;;;4755237;30;20118;-81
2021/10/08 10:03:06;;;;;;;30.90;14.75;;;18.30;78.00;;;;;;4755914;30;20028;-81
2021/10/08 10:05:33;;;;;;;37.03;16.15;;;18.30;78.40;;;;;;4756339;30;20036;-81
2021/10/08 10:07:59;;;;;;;30.38;14.50;;;18.40;77.70;;;;;;4755483;30;20074;-81
2021/10/08 10:10:26;;;;;;;25.60;13.85;;;18.40;78.10;;;;;;4755352;30;20232;-81
2021/10/08 10:12:52;;;;;;;;;;;18.20;77.60;;;;;;4740533;30;20036;-81
2021/10/08 10:15:19;;;;;;;32.60;12.93;;;18.00;77.60;;;;;;4740476;30;19933;-82
2021/10/08 10:17:46;;;;;;;35.53;14.35;;;18.10;78.50;;;;;;4740872;30;20028;-81
2021/10/08 10:20:13;;;;;;;28.70;14.27;;;18.20;77.10;;;;;;4740711;30;20043;-81
2021/10/08 10:22:40;;;;;;;32.70;13.25;;;18.10;76.20;;;;;;4755522;30;20235;-82
2021/10/08 10:25:08;;;;;;;30.50;12.82;;;18.20;76.90;;;;;;4754836;30;20097;-82
2021/10/08 10:27:34;;;;;;;30.85;11.82;;;18.40;76.90;;;;;;4755301;30;20055;-82
2021/10/08 10:30:01;;;;;;;25.15;12.68;;;18.60;76.50;;;;;;4752525;30;20087;-78
2021/10/08 10:32:28;;;;;;;;;;;18.70;75.80;;;;;;4738318;30;20036;-80
2021/10/08 10:34:53;;;;;;;;;;;18.90;75.80;;;;;;4754192;30;19916;-79
2021/10/08 10:37:41;;;;;;;22.10;11.17;;;19.00;73.00;;;;;;4751500;30;19985;-80
2021/10/08 10:40:33;;;;;;;24.80;12.43;;;19.10;74.00;;;;;;4751528;30;20055;-79
2021/10/08 10:43:15;;;;;;;20.52;11.75;;;19.20;71.10;;;;;;4697152;30;20069;-79
2021/10/08 10:52:01;;;;;;;28.83;12.25;;;19.60;73.40;;;;;;4666377;30;20077;-79
2021/10/08 10:54:39;;;;;;;31.27;12.25;;;19.90;71.80;;;;;;4665873;30;20057;-79
2021/10/08 10:57:14;;;;;;;24.55;11.30;;;19.70;69.60;;;;;;4666283;30;20030;-79
2021/10/08 10:59:41;;;;;;;24.02;10.90;;;19.50;70.30;;;;;;4667174;30;20070;-78
2021/10/08 11:02:08;;;;;;;26.87;11.93;;;19.30;71.70;;;;;;4667521;30;20089;-80
2021/10/08 11:04:35;;;;;;;;;;;19.40;72.10;;;;;;4666515;30;20030;-79
2021/10/08 11:07:08;;;;;;;22.25;10.90;;;19.40;70.20;;;;;;4679004;30;19971;-79
2021/10/08 11:09:35;;;;;;;28.38;11.70;;;19.40;70.90;;;;;;4650478;30;20066;-78
2021/10/08 11:12:39;;;;;;;26.08;11.77;;;19.40;70.90;;;;;;4679045;30;20365;-78
2021/10/08 11:15:17;;;;;;;26.90;12.25;;;19.70;70.20;;;;;;4664628;30;20446;-78
2021/10/08 11:17:54;;;;;;;26.73;13.27;;;19.80;70.60;;;;;;4664240;30;20053;-78
2021/10/08 11:20:28;;;;;;;19.92;11.98;;;20.00;69.30;;;;;;4690094;30;20045;-78
2021/10/08 11:23:00;;;;;;;25.00;11.18;;;20.00;67.80;;;;;;4684334;30;20040;-82
2021/10/08 11:25:31;;;;;;;32.85;11.50;;;20.10;69.30;;;;;;4686459;30;20040;-82
2021/10/08 11:27:57;;;;;;;23.63;12.82;;;20.20;67.90;;;;;;4753604;30;20032;-82
2021/10/08 11:30:25;;;;;;;36.78;13.20;;;20.10;67.40;;;;;;4738941;30;20074;-82
2021/10/08 11:32:53;;;;;;;37.50;12.68;;;20.00;68.00;;;;;;4738778;30;20032;-82
2021/10/08 11:35:29;;;;;;;27.80;12.15;;;19.90;70.30;;;;;;4752893;30;20032;-82
2021/10/08 11:37:54;;;;;;;27.10;12.73;;;20.00;68.50;;;;;;4738789;30;20055;-81
2021/10/08 11:40:28;;;;;;;29.95;12.45;;;20.00;69.60;;;;;;4752709;30;20032;-81
2021/10/08 11:43:01;;;;;;;24.67;11.95;;;20.00;68.90;;;;;;4753219;30;20028;-81
2021/10/08 11:48:17;;;;;;;28.55;12.95;;;19.90;68.90;;;;;;4733843;30;20041;-81
2021/10/08 11:50:50;;;;;;;25.80;11.45;;;19.70;69.20;;;;;;4734054;30;20045;-81
2021/10/08 11:53:16;;;;;;;26.60;12.35;;;19.50;69.30;;;;;;4737918;30;20038;-82
2021/10/08 11:55:42;;;;;;;23.88;11.60;;;19.50;70.90;;;;;;4725037;30;20036;-81
2021/10/08 11:58:11;;;;;;;28.63;11.10;;;19.60;70.00;;;;;;4737963;30;20097;-81
2021/10/08 12:00:44;;;;;;;24.77;11.05;;;19.80;69.80;;;;;;4742165;30;20043;-81
2021/10/08 12:03:19;;;;;;;26.27;12.25;;;19.60;70.10;;;;;;4766474;30;20051;-81
2021/10/08 12:05:51;;;;;;;25.98;13.82;;;19.50;69.90;;;;;;4751003;30;20392;-82
2021/10/08 12:08:20;;;;;;;35.30;12.57;;;19.50;69.30;;;;;;4750995;30;20247;-82
2021/10/08 12:11:09;;;;;;;28.25;12.98;;;19.60;70.40;;;;;;4749150;30;20103;-82
2021/10/08 12:13:50;;;;;;;25.83;12.80;;;19.60;71.40;;;;;;4764021;30;20032;-83
2021/10/08 12:16:38;;;;;;;26.50;11.93;;;19.70;70.00;;;;;;4762688;30;20375;-83
2021/10/08 12:19:04;;;;;;;23.30;12.18;;;19.70;69.80;;;;;;4751925;30;20075;-83
2021/10/08 12:21:49;;;;;;;39.13;11.63;;;19.80;69.10;;;;;;4740097;30;20055;-84
2021/10/08 12:24:22;;;;;;;23.55;12.20;;;19.80;69.40;;;;;;4738828;30;20036;-84
2021/10/08 12:26:56;;;;;;;35.35;12.13;;;19.70;68.20;;;;;;4753351;30;20036;-84
2021/10/08 12:29:22;;;;;;;19.15;10.48;;;19.70;69.00;;;;;;4736709;30;20051;-79
2021/10/08 12:31:51;;;;;;;26.93;11.40;;;19.80;68.90;;;;;;4749989;30;20099;-79
2021/10/08 12:34:35;;;;;;;26.75;11.30;;;19.80;69.50;;;;;;4749242;30;20085;-80
2021/10/08 12:37:03;;;;;;;23.10;10.77;;;19.80;68.10;;;;;;4733905;30;20031;-80
2021/10/08 12:39:34;;;;;;;21.35;11.05;;;19.80;69.20;;;;;;4748505;30;20256;-79
2021/10/08 12:42:08;;;;;;;25.92;11.35;;;19.90;69.70;;;;;;4748278;30;20028;-79
2021/10/08 12:44:36;;;;;;;28.77;12.52;;;19.80;68.70;;;;;;4733905;30;20111;-80
2021/10/08 12:47:10;;;;;;;29.35;13.15;;;19.60;70.50;;;;;;4733719;30;20231;-80
2021/10/08 12:49:50;;;;;;;34.83;12.55;;;19.50;70.40;;;;;;4764108;30;20032;-79
2021/10/08 12:52:41;;;;;;;33.33;12.60;;;19.60;70.90;;;;;;4747972;30;20058;-80
2021/10/08 12:55:11;;;;;;;39.72;13.63;;;19.60;70.60;;;;;;4745686;30;20055;-80
2021/10/08 12:57:59;;;;;;;24.52;13.20;;;19.60;70.80;;;;;;4733607;30;20252;-80
2021/10/08 13:00:47;;;;;;;38.83;12.23;;;19.50;71.20;;;;;;4681155;30;20109;-80
2021/10/08 13:03:38;;;;;;;32.33;12.77;;;19.30;70.90;;;;;;4680963;30;20041;-80
2021/10/08 13:06:07;;;;;;;31.95;12.52;;;19.20;71.20;;;;;;4695540;30;20064;-80
2021/10/08 13:08:35;;;;;;;28.05;12.20;;;19.20;71.90;;;;;;4695311;30;20037;-79
2021/10/08 13:11:01;;;;;;;32.42;12.90;;;19.20;72.60;;;;;;4709059;30;20038;-80
2021/10/08 13:13:30;;;;;;;30.85;13.15;;;19.20;71.80;;;;;;4672994;30;20049;-80
2021/10/08 13:15:56;;;;;;;28.63;11.77;;;19.30;71.70;;;;;;4660905;30;20291;-79
2021/10/08 13:18:22;;;;;;;27.02;12.82;;;19.30;73.00;;;;;;4664259;30;20034;-82
2021/10/08 13:20:50;;;;;;;20.90;12.45;;;19.40;72.20;;;;;;4665117;30;20042;-82
2021/10/08 13:23:18;;;;;;;32.50;13.27;;;19.40;73.00;;;;;;4664678;30;20105;-82
2021/10/08 13:25:49;;;;;;;;;;;19.30;72.10;;;;;;4664776;30;20046;-82
2021/10/08 13:28:18;;;;;;;33.17;11.88;;;19.10;72.20;;;;;;4650873;30;19994;-82
2021/10/08 13:30:55;;;;;;;28.83;11.80;;;18.90;73.00;;;;;;4650437;30;20061;-82
2021/10/08 13:33:22;;;;;;;33.28;12.73;;;18.90;73.10;;;;;;4664432;30;20136;-82
2021/10/08 13:35:53;;;;;;;32.30;12.90;;;18.80;72.60;;;;;;4664231;30;20050;-82
2021/10/08 13:38:22;;;;;;;29.95;11.57;;;18.70;73.50;;;;;;4723913;30;20338;-82
2021/10/08 13:40:49;;;;;;;26.23;10.85;;;18.80;74.40;;;;;;4718983;30;20079;-82
2021/10/08 13:43:15;;;;;;;30.70;12.00;;;18.90;74.50;;;;;;4733877;30;20044;-83
2021/10/08 13:45:41;;;;;;;24.57;12.30;;;19.00;74.30;;;;;;4718675;30;20394;-82
2021/10/08 13:48:08;;;;;;;30.87;12.53;;;19.00;73.60;;;;;;4736609;30;20028;-82
2021/10/08 13:50:34;;;;;;;;;;;19.10;73.80;;;;;;4751396;30;20090;-82
2021/10/08 13:53:07;;;;;;;25.17;11.48;;;19.10;73.60;;;;;;4736126;30;19933;-82
2021/10/08 13:55:35;;;;;;;26.63;11.73;;;19.00;73.40;;;;;;4735397;30;20040;-82
2021/10/08 13:58:01;;;;;;;33.67;10.60;;;18.90;73.70;;;;;;4748989;30;20032;-82
2021/10/08 14:00:27;;;;;;;29.52;11.45;;;18.90;73.90;;;;;;4762611;30;20080;-82
2021/10/08 14:02:59;;;;;;;32.40;11.20;;;18.80;73.90;;;;;;4746390;30;20035;-82
2021/10/08 14:05:30;;;;;;;23.90;10.52;;;18.80;74.30;;;;;;4736027;30;20024;-82
2021/10/08 14:10:29;;;;;;;25.50;10.32;;;18.80;73.70;;;;;;4768781;30;20059;-82
2021/10/08 14:12:55;;;;;;;32.13;11.32;;;18.80;73.30;;;;;;4752389;30;20043;-82
2021/10/08 14:15:23;;;;;;;22.33;11.23;;;18.90;73.10;;;;;;4753070;30;20047;-82
2021/10/08 14:17:49;;;;;;;30.33;12.32;;;18.90;73.40;;;;;;4737786;30;20032;-82
2021/10/08 14:20:16;;;;;;;28.08;11.32;;;18.90;73.40;;;;;;4766730;30;20103;-82
2021/10/08 14:22:45;;;;;;;37.05;12.07;;;18.90;73.30;;;;;;4737587;30;20103;-83
2021/10/08 14:25:13;;;;;;;25.15;11.55;;;18.90;73.00;;;;;;4750995;30;20339;-82
2021/10/08 14:27:39;;;;;;;20.35;10.60;;;18.90;72.20;;;;;;4736901;30;20249;-81
2021/10/08 14:30:08;;;;;;;36.43;11.90;;;18.80;70.50;;;;;;4748922;30;20036;-82
2021/10/08 14:32:34;;;;;;;29.77;10.75;;;18.60;71.50;;;;;;4736717;30;20354;-82
2021/10/08 14:35:01;;;;;;;21.02;10.52;;;18.50;71.50;;;;;;4736374;30;20044;-83
2021/10/08 14:37:28;;;;;;;29.20;11.82;;;18.40;72.40;;;;;;4734021;30;20041;-82
2021/10/08 14:39:54;;;;;;;25.52;11.13;;;18.40;73.50;;;;;;4749799;30;20036;-82
2021/10/08 14:42:20;;;;;;;37.07;14.57;;;18.30;72.80;;;;;;4748247;30;20038;-82
2021/10/08 14:44:45;;;;;;;27.25;12.23;;;18.40;73.10;;;;;;4737075;30;20028;-82
2021/10/08 14:47:11;;;;;;;30.30;11.40;;;18.40;73.80;;;;;;4749651;30;20100;-82
2021/10/08 14:49:37;;;;;;;29.27;10.73;;;18.60;74.00;;;;;;4736876;30;20032;-82
2021/10/08 14:52:05;;;;;;;25.33;11.80;;;18.70;73.70;;;;;;4721521;30;20053;-82
2021/10/08 14:57:27;;;;;;;27.83;12.48;;;18.60;74.00;;;;;;4737641;30;20039;-82
2021/10/08 14:59:54;;;;;;;30.13;12.07;;;18.60;73.90;;;;;;4721798;30;20086;-82
2021/10/08 15:02:21;;;;;;;33.75;12.38;;;18.50;73.30;;;;;;4735926;30;20041;-82
2021/10/08 15:04:47;;;;;;;41.75;12.50;;;18.60;73.50;;;;;;4735922;30;20033;-83
2021/10/08 15:07:14;;;;;;;33.10;12.07;;;18.60;72.50;;;;;;4735785;30;20068;-82
2021/10/08 15:09:41;;;;;;;28.25;11.68;;;18.50;72.60;;;;;;4735305;30;20107;-82
2021/10/08 15:12:07;;;;;;;28.98;11.55;;;18.50;73.60;;;;;;4735874;30;20039;-82
2021/10/08 15:14:33;;;;;;;29.80;11.20;;;18.30;73.80;;;;;;4722042;30;20029;-82
2021/10/08 15:17:00;;;;;;;38.20;12.52;;;18.20;74.10;;;;;;4758023;30;20336;-82
2021/10/08 15:19:29;;;;;;;40.13;12.23;;;18.20;73.80;;;;;;4753394;30;20024;-82
2021/10/08 15:21:57;;;;;;;31.50;12.38;;;18.20;74.30;;;;;;4769003;30;20044;-83
2021/10/08 15:24:27;;;;;;;28.10;11.75;;;18.10;74.80;;;;;;4753026;30;20032;-83
2021/10/08 15:26:53;;;;;;;36.95;11.75;;;18.10;74.50;;;;;;4769289;30;20043;-82
2021/10/08 15:29:19;;;;;;;35.88;12.82;;;18.00;75.40;;;;;;4754360;30;20068;-82
2021/10/08 15:31:45;;;;;;;39.42;13.35;;;18.00;75.00;;;;;;4746524;30;20044;-82
2021/10/08 15:34:11;;;;;;;29.52;13.70;;;18.00;75.40;;;;;;4721199;30;20024;-82
2021/10/08 15:36:37;;;;;;;32.42;13.18;;;18.00;75.70;;;;;;4753763;30;20028;-82
2021/10/08 15:39:04;;;;;;;43.08;13.63;;;17.90;75.90;;;;;;4737433;30;20041;-83